createdAt,value
2019-03-11T00:02:15.278Z,12.40
2019-03-11T00:04:47.769Z,16.37
2019-03-11T00:07:19.386Z,7.87
2019-03-11T00:09:52.571Z,7.60
2019-03-11T00:12:24.454Z,13.17
2019-03-11T00:14:55.693Z,9.00
2019-03-11T00:17:27.024Z,11.00
2019-03-11T00:19:58.704Z,9.53
2019-03-11T00:22:30.552Z,10.63
2019-03-11T00:25:01.990Z,8.70
2019-03-11T00:27:33.324Z,9.03
2019-03-11T00:30:05.405Z,6.17
2019-03-11T00:32:36.828Z,7.43
2019-03-11T00:35:09.523Z,6.57
2019-03-11T00:37:41.056Z,10.40
2019-03-11T00:40:13.197Z,7.70
2019-03-11T00:42:46.394Z,10.53
2019-03-11T00:45:19.413Z,11.00
2019-03-11T00:48:01.077Z,4.03
2019-03-11T00:50:23.860Z,9.30
2019-03-11T00:52:56.144Z,7.50
2019-03-11T00:55:27.531Z,8.43
2019-03-11T00:57:58.948Z,7.53
2019-03-11T01:00:35.112Z,4.70
2019-03-11T01:03:06.836Z,4.37
2019-03-11T01:05:38.080Z,5.10
2019-03-11T01:08:09.889Z,3.57
2019-03-11T01:10:41.173Z,4.77
2019-03-11T01:13:12.694Z,3.30
2019-03-11T01:15:43.987Z,4.33
2019-03-11T01:18:15.311Z,8.60
2019-03-11T01:20:46.629Z,3.80
2019-03-11T01:23:18.417Z,2.17
2019-03-11T01:25:50.816Z,3.50
2019-03-11T01:28:23.384Z,2.60
2019-03-11T01:30:54.922Z,2.27
2019-03-11T01:33:26.428Z,3.07
2019-03-11T01:35:57.806Z,3.47
2019-03-11T01:38:29.061Z,2.00
2019-03-11T01:41:01.002Z,2.40
2019-03-11T01:43:32.493Z,2.20
2019-03-11T01:46:04.227Z,1.73
2019-03-11T01:48:35.898Z,2.40
2019-03-11T01:51:08.100Z,2.83
2019-03-11T01:53:39.438Z,1.83
2019-03-11T01:56:10.983Z,2.80
2019-03-11T01:58:42.267Z,4.20
2019-03-11T02:01:14.491Z,5.37
2019-03-11T02:03:46.952Z,5.37
2019-03-11T02:06:19.803Z,3.47
2019-03-11T02:08:51.112Z,4.57
2019-03-11T02:11:22.675Z,2.80
2019-03-11T02:13:54.124Z,2.33
2019-03-11T02:16:25.502Z,3.23
2019-03-11T02:18:57.916Z,3.20
2019-03-11T02:21:30.553Z,6.53
2019-03-11T02:24:04.730Z,4.53
2019-03-11T02:26:36.091Z,2.03
2019-03-11T02:29:07.350Z,2.70
2019-03-11T02:31:38.633Z,3.00
2019-03-11T02:34:10.090Z,4.67
2019-03-11T02:36:41.602Z,6.40
2019-03-11T02:39:14.326Z,2.77
2019-03-11T02:41:45.957Z,3.27
2019-03-11T02:44:17.346Z,2.50
2019-03-11T02:46:48.925Z,6.63
2019-03-11T02:49:20.493Z,5.93
2019-03-11T02:51:51.931Z,6.10
2019-03-11T02:54:23.597Z,7.47
2019-03-11T02:56:56.377Z,6.30
2019-03-11T02:59:28.004Z,6.27
2019-03-11T03:02:17.005Z,6.73
2019-03-11T03:04:55.446Z,3.30
2019-03-11T03:07:26.981Z,3.33
2019-03-11T03:09:58.531Z,4.27
2019-03-11T03:12:30.193Z,3.83
2019-03-11T03:15:01.619Z,6.50
2019-03-11T03:17:34.128Z,3.17
2019-03-11T03:20:05.905Z,3.47
2019-03-11T03:22:40.185Z,4.70
2019-03-11T03:25:12.093Z,4.90
2019-03-11T03:27:43.507Z,5.87
2019-03-11T03:30:16.250Z,4.03
2019-03-11T03:32:47.681Z,2.70
2019-03-11T03:35:19.680Z,2.37
2019-03-11T03:37:50.930Z,5.50
2019-03-11T03:40:22.527Z,3.97
2019-03-11T03:42:53.956Z,3.50
2019-03-11T03:45:37.501Z,4.00
2019-03-11T03:48:08.847Z,6.50
2019-03-11T03:50:40.625Z,6.00
2019-03-11T03:53:11.958Z,6.00
2019-03-11T03:55:44.912Z,6.53
2019-03-11T03:58:16.697Z,6.00
2019-03-11T04:00:48.310Z,4.77
2019-03-11T04:03:19.944Z,7.27
2019-03-11T04:05:52.061Z,6.50
2019-03-11T04:08:23.610Z,5.63
2019-03-11T04:10:54.978Z,8.00
2019-03-11T04:13:26.382Z,6.80
2019-03-11T04:15:57.708Z,7.27
2019-03-11T04:18:49.919Z,9.23
2019-03-11T04:21:21.753Z,9.93
2019-03-11T04:23:53.243Z,7.53
2019-03-11T04:26:29.859Z,8.53
2019-03-11T04:29:01.320Z,9.83
2019-03-11T04:31:32.603Z,6.50
2019-03-11T04:34:04.540Z,12.73
2019-03-11T04:36:35.967Z,9.30
2019-03-11T04:39:07.881Z,7.07
2019-03-11T04:41:39.571Z,4.10
2019-03-11T04:44:10.980Z,3.70
2019-03-11T04:46:42.753Z,7.23
2019-03-11T04:49:14.078Z,5.20
2019-03-11T04:51:45.844Z,7.77
2019-03-11T04:54:17.393Z,3.43
2019-03-11T04:56:48.720Z,2.43
2019-03-11T04:59:20.886Z,3.27
2019-03-11T05:01:52.287Z,2.50
2019-03-11T05:04:23.776Z,2.43
2019-03-11T05:06:55.105Z,5.47
2019-03-11T05:09:26.433Z,3.03
2019-03-11T05:11:57.791Z,3.43
2019-03-11T05:14:29.715Z,2.13
2019-03-11T05:17:01.209Z,2.57
2019-03-11T05:19:32.926Z,2.67
2019-03-11T05:22:04.532Z,3.60
2019-03-11T05:24:36.381Z,3.43
2019-03-11T05:27:07.758Z,4.37
2019-03-11T05:29:39.384Z,4.17
2019-03-11T05:32:10.786Z,3.27
2019-03-11T05:34:42.242Z,2.90
2019-03-11T05:37:14.471Z,5.70
2019-03-11T05:39:45.944Z,2.87
2019-03-11T05:42:17.604Z,2.80
2019-03-11T05:44:49.595Z,4.17
2019-03-11T05:47:21.271Z,3.60
2019-03-11T05:49:52.525Z,5.80
2019-03-11T05:52:24.577Z,3.03
2019-03-11T05:54:56.095Z,3.50
2019-03-11T05:57:27.481Z,4.33
2019-03-11T05:59:58.905Z,3.37
2019-03-11T06:02:30.251Z,6.03
2019-03-11T06:05:01.584Z,4.27
2019-03-11T06:07:33.642Z,3.13
2019-03-11T06:10:05.434Z,6.87
2019-03-11T06:12:36.745Z,5.77
2019-03-11T06:15:08.512Z,8.40
2019-03-11T06:17:40.090Z,4.53
2019-03-11T06:20:29.698Z,5.73
2019-03-11T06:23:01.434Z,5.07
2019-03-11T06:25:32.761Z,5.93
2019-03-11T06:28:04.434Z,4.83
2019-03-11T06:30:36.136Z,6.20
2019-03-11T06:33:07.557Z,2.87
2019-03-11T06:35:40.395Z,5.67
2019-03-11T06:38:12.815Z,7.93
2019-03-11T06:40:45.966Z,7.27
2019-03-11T06:43:17.064Z,4.90
2019-03-11T06:45:48.516Z,5.57
2019-03-11T06:48:20.114Z,6.37
2019-03-11T06:50:51.468Z,6.03
2019-03-11T06:53:22.918Z,4.43
2019-03-11T06:55:54.972Z,4.87
2019-03-11T06:58:26.337Z,4.03
2019-03-11T07:00:58.627Z,7.43
2019-03-11T07:03:29.861Z,5.57
2019-03-11T07:06:01.824Z,11.17
2019-03-11T07:08:33.240Z,5.63
2019-03-11T07:11:05.341Z,4.80
2019-03-11T07:13:36.703Z,6.87
2019-03-11T07:16:09.451Z,7.30
2019-03-11T07:18:41.002Z,5.47
2019-03-11T07:21:12.360Z,3.83
2019-03-11T07:23:43.778Z,6.17
2019-03-11T07:26:15.111Z,3.30
2019-03-11T07:28:46.714Z,3.77
2019-03-11T07:31:18.936Z,4.70
2019-03-11T07:33:50.184Z,6.05
2019-03-11T07:36:22.229Z,5.37
2019-03-11T07:38:53.627Z,3.90
2019-03-11T07:41:25.027Z,6.93
2019-03-11T07:43:56.861Z,4.33
2019-03-11T07:46:28.319Z,5.17
2019-03-11T07:48:59.597Z,5.93
2019-03-11T07:51:30.850Z,5.63
2019-03-11T07:54:02.240Z,3.83
2019-03-11T07:56:33.861Z,3.87
2019-03-11T07:59:05.303Z,6.63
2019-03-11T08:01:36.745Z,3.10
2019-03-11T08:04:08.199Z,4.07
2019-03-11T08:06:39.776Z,4.53
2019-03-11T08:09:11.294Z,4.23
2019-03-11T08:11:43.295Z,4.23
2019-03-11T08:14:15.704Z,4.63
2019-03-11T08:16:47.282Z,4.80
2019-03-11T08:19:19.228Z,3.63
2019-03-11T08:21:50.763Z,8.00
2019-03-11T08:24:22.237Z,8.10
2019-03-11T08:26:53.532Z,4.53
2019-03-11T08:29:24.881Z,4.43
2019-03-11T08:31:56.191Z,3.50
2019-03-11T08:34:28.035Z,3.70
2019-03-11T08:36:59.401Z,2.87
2019-03-11T08:39:30.667Z,2.20
2019-03-11T08:42:02.874Z,3.37
2019-03-11T08:44:34.628Z,3.70
2019-03-11T08:47:05.935Z,4.03
2019-03-11T08:49:37.423Z,4.90
2019-03-11T08:52:08.836Z,3.47
2019-03-11T08:54:40.893Z,3.13
2019-03-11T08:57:12.379Z,3.63
2019-03-11T08:59:44.294Z,4.93
2019-03-11T09:02:16.104Z,5.33
2019-03-11T09:04:48.157Z,2.30
2019-03-11T09:07:19.764Z,4.53
2019-03-11T09:09:51.224Z,3.77
2019-03-11T09:12:22.847Z,4.17
2019-03-11T09:14:54.662Z,5.83
2019-03-11T09:17:26.706Z,4.43
2019-03-11T09:19:58.056Z,3.13
2019-03-11T09:22:29.407Z,3.93
2019-03-11T09:25:01.927Z,4.80
2019-03-11T09:27:35.636Z,2.67
2019-03-11T09:30:08.359Z,2.77
2019-03-11T09:32:39.883Z,1.60
2019-03-11T09:35:11.381Z,2.80
2019-03-11T09:37:42.786Z,2.17
2019-03-11T09:40:17.398Z,3.03
2019-03-11T09:42:49.096Z,4.10
2019-03-11T09:45:24.333Z,4.23
2019-03-11T09:47:55.697Z,9.57
2019-03-11T09:50:27.167Z,7.50
2019-03-11T09:52:58.633Z,6.13
2019-03-11T09:55:29.948Z,3.72
2019-03-11T09:58:01.445Z,2.03
2019-03-11T10:00:33.942Z,1.57
2019-03-11T10:03:06.940Z,5.07
2019-03-11T10:05:38.602Z,3.67
2019-03-11T10:08:11.041Z,3.33
2019-03-11T10:10:42.528Z,2.43
2019-03-11T10:13:14.085Z,2.97
2019-03-11T10:15:46.293Z,2.20
2019-03-11T10:18:17.790Z,3.27
2019-03-11T10:20:49.114Z,2.40
2019-03-11T10:23:31.693Z,2.53
2019-03-11T10:25:54.867Z,2.50
2019-03-11T10:28:27.068Z,3.03
2019-03-11T10:30:58.515Z,1.57
2019-03-11T10:33:30.097Z,1.93
2019-03-11T10:36:01.988Z,2.77
2019-03-11T10:38:33.663Z,1.57
2019-03-11T10:41:06.366Z,4.03
2019-03-11T10:43:38.118Z,2.23
2019-03-11T10:46:09.366Z,3.23
2019-03-11T10:48:40.698Z,3.80
2019-03-11T10:51:12.512Z,2.70
2019-03-11T10:53:45.887Z,2.47
2019-03-11T10:56:17.828Z,5.50
2019-03-11T10:58:49.507Z,4.30
2019-03-11T11:01:21.429Z,4.43
2019-03-11T11:03:53.247Z,2.47
2019-03-11T11:06:25.509Z,1.73
2019-03-11T11:08:56.852Z,2.00
2019-03-11T11:11:28.345Z,3.37
2019-03-11T11:13:59.822Z,1.83
2019-03-11T11:16:31.254Z,3.70
2019-03-11T11:19:03.228Z,3.13
2019-03-11T11:21:34.576Z,2.13
2019-03-11T11:24:06.023Z,4.77
2019-03-11T11:26:37.407Z,3.10
2019-03-11T11:29:08.753Z,3.20
2019-03-11T11:31:40.276Z,2.70
2019-03-11T11:34:11.644Z,3.57
2019-03-11T11:36:43.109Z,1.97
2019-03-11T11:39:14.611Z,2.13
2019-03-11T11:41:45.995Z,6.00
2019-03-11T11:44:17.582Z,2.67
2019-03-11T11:46:49.930Z,2.77
2019-03-11T11:49:21.365Z,4.13
2019-03-11T11:51:52.793Z,3.90
2019-03-11T11:54:24.235Z,4.57
2019-03-11T11:56:55.543Z,2.80
2019-03-11T11:59:27.039Z,2.37
2019-03-11T12:02:03.692Z,5.00
2019-03-11T12:04:32.188Z,1.83
2019-03-11T12:07:03.426Z,1.60
2019-03-11T12:09:34.797Z,1.60
2019-03-11T12:12:06.700Z,2.87
2019-03-11T12:14:38.020Z,1.57
2019-03-11T12:17:09.504Z,7.17
2019-03-11T12:19:41.914Z,3.87
2019-03-11T12:22:13.446Z,2.50
2019-03-11T12:24:45.019Z,2.97
2019-03-11T12:27:16.574Z,4.77
2019-03-11T12:29:47.921Z,2.00
2019-03-11T12:32:19.537Z,2.47
2019-03-11T12:34:51.454Z,2.50
2019-03-11T12:37:23.289Z,3.60
2019-03-11T12:39:54.657Z,3.57
2019-03-11T12:42:25.982Z,4.17
2019-03-11T12:44:57.344Z,4.23
2019-03-11T12:47:28.932Z,4.53
2019-03-11T12:50:00.388Z,2.13
2019-03-11T12:52:32.457Z,8.27
2019-03-11T12:55:03.801Z,1.97
2019-03-11T12:57:35.377Z,1.50
2019-03-11T13:00:07.455Z,4.30
2019-03-11T13:02:38.937Z,2.37
2019-03-11T13:05:10.959Z,3.60
2019-03-11T13:07:42.861Z,1.73
2019-03-11T13:10:16.923Z,3.73
2019-03-11T13:12:48.587Z,2.67
2019-03-11T13:15:21.470Z,5.80
2019-03-11T13:17:52.975Z,3.03
2019-03-11T13:20:31.130Z,4.30
2019-03-11T13:23:03.279Z,2.27
2019-03-11T13:25:35.063Z,4.77
2019-03-11T13:28:07.241Z,7.87
2019-03-11T13:30:38.928Z,6.80
2019-03-11T13:33:10.456Z,12.97
2019-03-11T13:35:41.837Z,4.20
2019-03-11T13:38:13.357Z,9.90
2019-03-11T13:40:45.334Z,2.67
2019-03-11T13:43:17.305Z,3.40
2019-03-11T13:45:48.839Z,6.40
2019-03-11T13:48:21.333Z,4.67
2019-03-11T13:50:53.380Z,2.60
2019-03-11T13:53:25.092Z,6.10
2019-03-11T13:55:57.419Z,3.73
2019-03-11T13:58:28.835Z,2.50
2019-03-11T14:01:00.713Z,3.47
2019-03-11T14:03:33.655Z,3.83
2019-03-11T14:06:04.957Z,3.07
2019-03-11T14:08:36.405Z,3.77
2019-03-11T14:11:08.385Z,5.60
2019-03-11T14:13:39.936Z,6.13
2019-03-11T14:16:11.480Z,3.97
2019-03-11T14:18:43.957Z,4.07
2019-03-11T14:21:24.931Z,3.70
2019-03-11T14:23:48.970Z,6.93
2019-03-11T14:26:20.548Z,5.30
2019-03-11T14:28:51.888Z,7.43
2019-03-11T14:31:24.148Z,7.10
2019-03-11T14:33:56.188Z,3.73
2019-03-11T14:36:27.677Z,3.20
2019-03-11T14:39:00.356Z,8.23
2019-03-11T14:41:32.485Z,5.43
2019-03-11T14:44:04.249Z,4.43
2019-03-11T14:46:35.921Z,3.20
2019-03-11T14:49:07.522Z,4.83
2019-03-11T14:51:38.836Z,5.47
2019-03-11T14:54:10.537Z,5.13
2019-03-11T14:56:42.203Z,14.47
2019-03-11T14:59:14.036Z,4.07
2019-03-11T15:01:45.444Z,5.03
2019-03-11T15:04:17.396Z,7.40
2019-03-11T15:06:48.814Z,8.63
2019-03-11T15:09:20.648Z,9.03
2019-03-11T15:11:52.035Z,4.70
2019-03-11T15:14:23.487Z,5.53
2019-03-11T15:16:54.771Z,4.80
2019-03-11T15:19:26.348Z,5.13
2019-03-11T15:21:57.680Z,15.03
2019-03-11T15:24:29.655Z,8.40
2019-03-11T15:27:01.504Z,11.97
2019-03-11T15:29:32.982Z,8.10
2019-03-11T15:32:04.221Z,12.07
2019-03-11T15:34:35.799Z,9.53
2019-03-11T15:37:07.853Z,7.47
2019-03-11T15:39:39.784Z,14.43
2019-03-11T15:42:11.725Z,8.57
2019-03-11T15:44:43.356Z,5.27
2019-03-11T15:47:15.618Z,7.37
2019-03-11T15:49:47.220Z,7.70
2019-03-11T15:52:19.419Z,6.23
2019-03-11T15:54:51.249Z,6.03
2019-03-11T15:57:23.457Z,3.67
2019-03-11T15:59:54.751Z,5.97
2019-03-11T16:02:26.361Z,7.63
2019-03-11T16:04:58.076Z,5.90
2019-03-11T16:07:29.384Z,7.07
2019-03-11T16:10:02.050Z,7.83
2019-03-11T16:12:34.264Z,6.53
2019-03-11T16:15:06.385Z,6.40
2019-03-11T16:17:38.080Z,7.43
2019-03-11T16:20:11.502Z,5.27
2019-03-11T16:22:43.001Z,6.50
2019-03-11T16:25:14.668Z,6.83
2019-03-11T16:27:46.650Z,7.37
2019-03-11T16:30:19.367Z,7.37
2019-03-11T16:32:59.415Z,8.67
2019-03-11T16:35:25.841Z,6.43
2019-03-11T16:37:58.252Z,8.40
2019-03-11T16:40:30.353Z,9.53
2019-03-11T16:43:01.975Z,7.73
2019-03-11T16:45:33.903Z,9.20
2019-03-11T16:48:05.790Z,18.77
2019-03-11T16:50:37.607Z,20.90
2019-03-11T16:53:09.235Z,31.37
2019-03-11T16:55:41.721Z,20.83
2019-03-11T16:58:13.379Z,9.93
2019-03-11T17:00:44.980Z,17.97
2019-03-11T17:03:16.282Z,15.67
2019-03-11T17:05:47.679Z,23.37
2019-03-11T17:08:19.125Z,23.67
2019-03-11T17:10:50.506Z,28.53
2019-03-11T17:13:22.018Z,24.97
2019-03-11T17:15:53.940Z,13.10
2019-03-11T17:18:25.390Z,19.33
2019-03-11T17:20:56.804Z,20.17
2019-03-11T17:23:28.383Z,25.53
2019-03-11T17:25:59.761Z,19.07
2019-03-11T17:28:33.688Z,9.80
2019-03-11T17:31:04.194Z,17.77
2019-03-11T17:33:35.566Z,18.63
2019-03-11T17:36:07.083Z,17.43
2019-03-11T17:38:38.540Z,16.20
2019-03-11T17:41:10.672Z,18.03
2019-03-11T17:43:42.135Z,18.27
2019-03-11T17:46:13.819Z,14.53
2019-03-11T17:48:45.230Z,20.47
2019-03-11T17:51:16.638Z,16.30
2019-03-11T17:53:48.500Z,17.70
2019-03-11T17:56:20.069Z,17.60
2019-03-11T17:58:51.451Z,19.43
2019-03-11T18:01:22.891Z,14.90
2019-03-11T18:03:54.468Z,18.20
2019-03-11T18:06:25.831Z,19.13
2019-03-11T18:08:57.992Z,20.60
2019-03-11T18:11:30.088Z,34.93
2019-03-11T18:14:03.499Z,17.87
2019-03-11T18:16:35.334Z,16.43
2019-03-11T18:19:07.939Z,21.77
2019-03-11T18:21:39.473Z,16.33
2019-03-11T18:24:10.932Z,21.57
2019-03-11T18:26:42.236Z,25.47
2019-03-11T18:29:13.662Z,21.37
2019-03-11T18:31:45.084Z,19.73
2019-03-11T18:34:16.412Z,22.10
2019-03-11T18:36:47.741Z,16.73
2019-03-11T18:39:19.510Z,15.33
2019-03-11T18:41:52.985Z,23.07
2019-03-11T18:44:24.409Z,22.47
2019-03-11T18:46:55.946Z,19.53
2019-03-11T18:49:27.543Z,16.73
2019-03-11T18:51:59.494Z,18.23
2019-03-11T18:54:30.886Z,10.97
2019-03-11T18:57:02.406Z,15.90
2019-03-11T18:59:33.752Z,12.50
2019-03-11T19:02:05.192Z,16.43
2019-03-11T19:04:36.741Z,20.37
2019-03-11T19:07:08.312Z,24.73
2019-03-11T19:09:40.364Z,17.33
2019-03-11T19:12:11.778Z,18.13
2019-03-11T19:14:43.170Z,17.70
2019-03-11T19:17:14.616Z,21.03
2019-03-11T19:19:46.972Z,21.93
2019-03-11T19:22:18.366Z,19.53
2019-03-11T19:24:49.820Z,21.93
2019-03-11T19:27:21.375Z,20.97
2019-03-11T19:29:52.948Z,22.63
2019-03-11T19:32:24.565Z,17.57
2019-03-11T19:34:55.938Z,24.37
2019-03-11T19:37:27.313Z,30.47
2019-03-11T19:39:58.705Z,32.83
2019-03-11T19:42:31.514Z,30.83
2019-03-11T19:45:03.204Z,29.63
2019-03-11T19:47:35.296Z,25.43
2019-03-11T19:50:07.349Z,28.93
2019-03-11T19:52:38.993Z,25.17
2019-03-11T19:55:10.472Z,29.90
2019-03-11T19:57:42.287Z,29.90
2019-03-11T20:00:16.488Z,30.67
2019-03-11T20:02:48.309Z,30.37
2019-03-11T20:05:21.650Z,23.97
2019-03-11T20:07:53.268Z,24.93
2019-03-11T20:10:24.680Z,18.87
2019-03-11T20:12:56.323Z,21.47
2019-03-11T20:15:28.926Z,25.33
2019-03-11T20:18:00.372Z,20.60
2019-03-11T20:20:32.198Z,22.00
2019-03-11T20:23:03.672Z,22.17
2019-03-11T20:25:35.833Z,19.50
2019-03-11T20:28:08.678Z,17.93
2019-03-11T20:30:40.078Z,24.00
2019-03-11T20:33:12.341Z,19.83
2019-03-11T20:35:43.964Z,23.33
2019-03-11T20:38:15.313Z,23.53
2019-03-11T20:40:46.974Z,23.43
2019-03-11T20:43:18.733Z,23.83
2019-03-11T20:45:50.325Z,22.83
2019-03-11T20:48:21.989Z,35.40
2019-03-11T20:50:54.009Z,21.37
2019-03-11T20:53:25.502Z,18.50
2019-03-11T20:55:56.995Z,11.60
2019-03-11T20:58:28.508Z,17.43
2019-03-11T21:01:00.543Z,14.50
2019-03-11T21:03:32.806Z,15.50
2019-03-11T21:06:04.671Z,11.87
2019-03-11T21:08:36.054Z,14.33
2019-03-11T21:11:07.522Z,11.33
2019-03-11T21:13:39.998Z,12.10
2019-03-11T21:16:11.305Z,8.67
2019-03-11T21:18:42.966Z,10.47
2019-03-11T21:21:14.337Z,6.63
2019-03-11T21:23:46.396Z,10.40
2019-03-11T21:26:17.813Z,15.47
2019-03-11T21:28:49.297Z,7.90
2019-03-11T21:31:22.063Z,11.63
2019-03-11T21:33:58.877Z,10.73
2019-03-11T21:36:27.183Z,16.87
2019-03-11T21:38:58.600Z,11.57
2019-03-11T21:41:30.054Z,9.97
2019-03-11T21:44:01.480Z,14.93
2019-03-11T21:46:33.243Z,12.63
2019-03-11T21:49:05.010Z,11.87
2019-03-11T21:51:37.076Z,11.07
2019-03-11T21:54:08.755Z,11.93
2019-03-11T21:56:40.033Z,11.83
2019-03-11T21:59:11.865Z,15.60
2019-03-11T22:01:43.363Z,15.27
2019-03-11T22:04:15.458Z,18.13
2019-03-11T22:06:47.170Z,17.57
2019-03-11T22:09:20.396Z,18.23
2019-03-11T22:11:51.899Z,19.53
2019-03-11T22:14:23.350Z,13.60
2019-03-11T22:16:55.431Z,20.30
2019-03-11T22:19:26.858Z,20.17
2019-03-11T22:21:58.323Z,19.17
2019-03-11T22:24:30.267Z,19.23
2019-03-11T22:27:01.602Z,13.97
2019-03-11T22:29:33.013Z,13.93
2019-03-11T22:32:04.508Z,11.03
2019-03-11T22:34:35.909Z,15.07
2019-03-11T22:37:07.905Z,11.63
2019-03-11T22:39:39.947Z,16.53
2019-03-11T22:42:12.010Z,11.63
2019-03-11T22:44:44.404Z,13.60
2019-03-11T22:47:15.787Z,12.40
2019-03-11T22:49:47.940Z,15.77
2019-03-11T22:52:19.470Z,15.70
2019-03-11T22:54:51.048Z,14.33
2019-03-11T22:57:23.730Z,16.47
2019-03-11T22:59:55.086Z,18.90
2019-03-11T23:02:26.438Z,16.83
2019-03-11T23:04:57.776Z,20.17
2019-03-11T23:07:30.224Z,20.37
2019-03-11T23:10:01.584Z,18.90
2019-03-11T23:12:33.037Z,17.63
2019-03-11T23:15:04.557Z,29.43
2019-03-11T23:17:36.437Z,19.47
2019-03-11T23:20:07.921Z,19.97
2019-03-11T23:22:39.342Z,22.57
2019-03-11T23:25:10.855Z,21.37
2019-03-11T23:27:42.353Z,18.37
2019-03-11T23:30:13.808Z,20.30
2019-03-11T23:32:45.140Z,21.97
2019-03-11T23:35:16.456Z,19.37
2019-03-11T23:37:47.970Z,17.23
2019-03-11T23:40:19.470Z,14.07
2019-03-11T23:42:51.247Z,16.10
2019-03-11T23:45:23.129Z,15.83
2019-03-11T23:47:54.391Z,17.53
2019-03-11T23:50:25.803Z,17.17
2019-03-11T23:52:57.553Z,17.90
2019-03-11T23:55:29.492Z,15.40
2019-03-11T23:58:00.923Z,14.77
